Cary Plt, Maine
Current Conditions -  °F | °C
As of 5:53 AM on Thursday 23 Oct 2014 (Local Time) from KHUL Reporting Station
Light Rain Light Rain  
Wind Chill: 40°   Ceiling: 1300
Heat Index: 45°   Visibility: 7mi
Dew Point: 42°   Wind: 9mph
Humidity: 90%   Direction: 30°NNE
Pressure: 30.13"   Gusts: NA
Location:  45.8952°N, 67.8479°W
Report Text: KHUL 230953Z AUTO 03008KT 7SM -RA OVC013 07/06 A3013 RMK AO2 SLP206 T00720056 PNO $
Loading
Personal Weather Stations






























Interactive Weather Map
Tropical Storm Tracking
New forecast layout! Learn more

10-Day Weather Forecast

Advertisements
Track Severe Weather on mobile